Bramon, Sweden

7:17 AM CEST on July 25, 2016 (GMT +0200)
Alno Aktervagen 8 | | Change Station

Elev 253 ft 62.44 °N, 17.42 °E | Updated 4 seconds ago

Patches of Fog
Patches Fog
62.6 °F
Feels Like 62.6 °F
N
1.6
Wind Variable Wind from NW
Gusts 3.1 mph

Today
High -- | Low -- °F
--% Chance of Precip.
Yesterday
High -- | Low -- °F
Precip. -- in
Pressure 30.06 in
Visibility 0.7 miles
Clouds Overcast 200 ft
Dew Point 62 °F
Humidity 97%
Rainfall 0.00 in
Snow Depth Not available.
3:55 AM 9:53 PM
Waning Gibbous, 69% visible
METAR ESNN 250450Z 31004KT 1100 R16/P1500N R34/P1500N BCFG OVC002 15/14 Q1018
Pressure 30.06 in
Visibility 0.7 miles
Clouds Overcast 200 ft
Dew Point 62 °F
Humidity 97%
Rainfall 0.00 in
Snow Depth Not available.
3:55 AM 9:53 PM
Waning Gibbous, 69% visible
METAR ESNN 250450Z 31004KT 1100 R16/P1500N R34/P1500N BCFG OVC002 15/14 Q1018

10-Day Weather Forecast

×

Almanac

Astronomy

Jul. 25, 2016 Rise Set
Actual Time
Civil Twilight
Nautical Twilight
Astronomical Twilight
Moon
Length of Visible Light
Length of Day
Tomorrow will be .
, % of the Moon is Illuminated

Today's Extremes

Country Highs Country Lows

Community

WunderPhotos

Upload Photos

1,927,271 photos uploaded!

WunderBlog® & News

Nearby

Air Quality

  Air Quality AQ Index Pollutant
Not available.

Snow Depth

Station Depth Elevation

Earthquake Activity

City Distance Mag. Time & Date
Minimum magnitude displayed is 2.5.

Coastal Water Temperatures

Place Temperature

Stations

Nearby Weather Stations

Station Location Temp. Windchill Dew Point Humidity Wind Precip. Elev Updated Type